sensor_id;sensor_type;location;lat;lon;timestamp;P1;durP1;ratioP1;P2;durP2;ratioP2
809;SDS011;387;48.772;9.186;2023-04-23T00:00:47;9.03;;;4.40;;
809;SDS011;387;48.772;9.186;2023-04-23T00:03:13;5.30;;;3.57;;
809;SDS011;387;48.772;9.186;2023-04-23T00:05:43;10.17;;;4.00;;
809;SDS011;387;48.772;9.186;2023-04-23T00:08:09;6.27;;;3.63;;
809;SDS011;387;48.772;9.186;2023-04-23T00:10:35;8.67;;;3.87;;
809;SDS011;387;48.772;9.186;2023-04-23T00:13:01;5.83;;;3.10;;
809;SDS011;387;48.772;9.186;2023-04-23T00:15:28;6.97;;;3.43;;
809;SDS011;387;48.772;9.186;2023-04-23T00:17:54;6.43;;;4.20;;
809;SDS011;387;48.772;9.186;2023-04-23T00:20:20;5.13;;;3.40;;
809;SDS011;387;48.772;9.186;2023-04-23T00:22:46;5.67;;;3.33;;
809;SDS011;387;48.772;9.186;2023-04-23T00:25:12;6.87;;;3.47;;
809;SDS011;387;48.772;9.186;2023-04-23T00:27:38;6.20;;;3.80;;
809;SDS011;387;48.772;9.186;2023-04-23T00:30:04;11.23;;;3.70;;
809;SDS011;387;48.772;9.186;2023-04-23T00:32:30;8.20;;;3.77;;
809;SDS011;387;48.772;9.186;2023-04-23T00:34:56;5.63;;;3.43;;
809;SDS011;387;48.772;9.186;2023-04-23T00:37:22;8.57;;;3.40;;
809;SDS011;387;48.772;9.186;2023-04-23T00:39:47;5.70;;;3.20;;
809;SDS011;387;48.772;9.186;2023-04-23T00:42:13;5.73;;;3.90;;
809;SDS011;387;48.772;9.186;2023-04-23T00:44:41;9.77;;;4.07;;
809;SDS011;387;48.772;9.186;2023-04-23T00:47:07;4.73;;;2.90;;
809;SDS011;387;48.772;9.186;2023-04-23T00:49:33;12.60;;;3.40;;
809;SDS011;387;48.772;9.186;2023-04-23T00:52:00;6.40;;;3.10;;
809;SDS011;387;48.772;9.186;2023-04-23T00:54:26;3.70;;;3.13;;
809;SDS011;387;48.772;9.186;2023-04-23T00:56:52;4.87;;;3.50;;
809;SDS011;387;48.772;9.186;2023-04-23T00:59:19;7.43;;;3.30;;
809;SDS011;387;48.772;9.186;2023-04-23T01:01:45;5.73;;;3.10;;
809;SDS011;387;48.772;9.186;2023-04-23T01:04:12;8.00;;;3.47;;
809;SDS011;387;48.772;9.186;2023-04-23T01:06:39;6.20;;;2.80;;
809;SDS011;387;48.772;9.186;2023-04-23T01:09:06;9.43;;;3.47;;
809;SDS011;387;48.772;9.186;2023-04-23T01:11:33;5.87;;;3.37;;
809;SDS011;387;48.772;9.186;2023-04-23T01:14:03;6.00;;;3.50;;
809;SDS011;387;48.772;9.186;2023-04-23T01:16:28;6.27;;;3.03;;
809;SDS011;387;48.772;9.186;2023-04-23T01:18:54;6.10;;;3.40;;
809;SDS011;387;48.772;9.186;2023-04-23T01:21:20;5.10;;;3.13;;
809;SDS011;387;48.772;9.186;2023-04-23T01:23:47;6.43;;;3.10;;
809;SDS011;387;48.772;9.186;2023-04-23T01:26:13;4.73;;;2.87;;
809;SDS011;387;48.772;9.186;2023-04-23T01:28:40;5.80;;;3.20;;
809;SDS011;387;48.772;9.186;2023-04-23T01:31:06;6.63;;;3.40;;
809;SDS011;387;48.772;9.186;2023-04-23T01:33:32;5.43;;;2.67;;
809;SDS011;387;48.772;9.186;2023-04-23T01:35:59;3.93;;;2.70;;
809;SDS011;387;48.772;9.186;2023-04-23T01:38:27;5.10;;;3.40;;
809;SDS011;387;48.772;9.186;2023-04-23T01:40:55;8.20;;;2.93;;
809;SDS011;387;48.772;9.186;2023-04-23T01:43:20;4.23;;;3.10;;
809;SDS011;387;48.772;9.186;2023-04-23T01:45:47;4.07;;;3.00;;
809;SDS011;387;48.772;9.186;2023-04-23T01:48:12;5.60;;;3.60;;
809;SDS011;387;48.772;9.186;2023-04-23T01:50:38;5.67;;;3.13;;
809;SDS011;387;48.772;9.186;2023-04-23T01:53:04;9.67;;;3.77;;
809;SDS011;387;48.772;9.186;2023-04-23T01:55:30;5.47;;;3.20;;
809;SDS011;387;48.772;9.186;2023-04-23T01:57:58;5.43;;;3.17;;
809;SDS011;387;48.772;9.186;2023-04-23T02:00:23;3.90;;;2.90;;
809;SDS011;387;48.772;9.186;2023-04-23T02:02:49;6.80;;;3.67;;
809;SDS011;387;48.772;9.186;2023-04-23T02:05:17;6.97;;;3.20;;
809;SDS011;387;48.772;9.186;2023-04-23T02:07:44;4.20;;;3.23;;
809;SDS011;387;48.772;9.186;2023-04-23T02:10:10;10.87;;;3.37;;
809;SDS011;387;48.772;9.186;2023-04-23T02:12:36;5.57;;;3.10;;
809;SDS011;387;48.772;9.186;2023-04-23T02:15:03;5.80;;;3.57;;
809;SDS011;387;48.772;9.186;2023-04-23T02:17:30;3.93;;;3.57;;
809;SDS011;387;48.772;9.186;2023-04-23T02:19:56;5.20;;;2.97;;
809;SDS011;387;48.772;9.186;2023-04-23T02:22:22;5.40;;;3.47;;
809;SDS011;387;48.772;9.186;2023-04-23T02:24:49;4.33;;;3.23;;
809;SDS011;387;48.772;9.186;2023-04-23T02:27:16;7.63;;;4.27;;
809;SDS011;387;48.772;9.186;2023-04-23T02:29:43;6.00;;;3.73;;
809;SDS011;387;48.772;9.186;2023-04-23T02:32:09;5.57;;;3.50;;
809;SDS011;387;48.772;9.186;2023-04-23T02:34:35;5.53;;;3.67;;
809;SDS011;387;48.772;9.186;2023-04-23T02:37:00;5.40;;;3.63;;
809;SDS011;387;48.772;9.186;2023-04-23T02:39:26;6.63;;;4.03;;
809;SDS011;387;48.772;9.186;2023-04-23T02:41:51;5.90;;;3.30;;
809;SDS011;387;48.772;9.186;2023-04-23T02:44:17;5.87;;;3.37;;
809;SDS011;387;48.772;9.186;2023-04-23T02:46:42;5.40;;;3.23;;
809;SDS011;387;48.772;9.186;2023-04-23T02:49:08;6.70;;;3.43;;
809;SDS011;387;48.772;9.186;2023-04-23T02:51:34;5.43;;;3.13;;
809;SDS011;387;48.772;9.186;2023-04-23T02:53:59;5.67;;;2.77;;
809;SDS011;387;48.772;9.186;2023-04-23T02:56:25;4.60;;;2.80;;
809;SDS011;387;48.772;9.186;2023-04-23T02:58:50;6.13;;;3.13;;
809;SDS011;387;48.772;9.186;2023-04-23T03:01:16;5.63;;;3.13;;
809;SDS011;387;48.772;9.186;2023-04-23T03:03:42;3.60;;;2.70;;
809;SDS011;387;48.772;9.186;2023-04-23T03:06:08;4.33;;;2.93;;
809;SDS011;387;48.772;9.186;2023-04-23T03:08:33;3.57;;;2.70;;
809;SDS011;387;48.772;9.186;2023-04-23T03:10:59;4.27;;;2.90;;
809;SDS011;387;48.772;9.186;2023-04-23T03:13:25;3.67;;;2.87;;
809;SDS011;387;48.772;9.186;2023-04-23T03:15:51;3.27;;;2.63;;
809;SDS011;387;48.772;9.186;2023-04-23T03:18:18;4.00;;;2.57;;
809;SDS011;387;48.772;9.186;2023-04-23T03:20:43;3.20;;;2.30;;
809;SDS011;387;48.772;9.186;2023-04-23T03:23:09;2.50;;;2.17;;
809;SDS011;387;48.772;9.186;2023-04-23T03:25:35;2.73;;;1.93;;
809;SDS011;387;48.772;9.186;2023-04-23T03:28:00;5.07;;;2.60;;
809;SDS011;387;48.772;9.186;2023-04-23T03:30:26;4.90;;;2.73;;
809;SDS011;387;48.772;9.186;2023-04-23T03:32:54;6.43;;;2.30;;
809;SDS011;387;48.772;9.186;2023-04-23T03:35:23;1.90;;;1.80;;
809;SDS011;387;48.772;9.186;2023-04-23T03:37:50;2.60;;;1.97;;
809;SDS011;387;48.772;9.186;2023-04-23T03:40:16;4.93;;;2.07;;
809;SDS011;387;48.772;9.186;2023-04-23T03:42:41;3.70;;;2.60;;
809;SDS011;387;48.772;9.186;2023-04-23T03:45:07;3.43;;;2.50;;
809;SDS011;387;48.772;9.186;2023-04-23T03:47:33;3.20;;;2.33;;
809;SDS011;387;48.772;9.186;2023-04-23T03:50:00;5.47;;;3.40;;
809;SDS011;387;48.772;9.186;2023-04-23T03:52:26;4.20;;;2.77;;
809;SDS011;387;48.772;9.186;2023-04-23T03:54:51;6.33;;;2.80;;
809;SDS011;387;48.772;9.186;2023-04-23T03:57:17;4.00;;;2.90;;
809;SDS011;387;48.772;9.186;2023-04-23T03:59:43;5.67;;;3.00;;
809;SDS011;387;48.772;9.186;2023-04-23T04:02:08;2.90;;;2.47;;
809;SDS011;387;48.772;9.186;2023-04-23T04:04:34;7.53;;;3.27;;
809;SDS011;387;48.772;9.186;2023-04-23T04:07:00;4.67;;;2.70;;
809;SDS011;387;48.772;9.186;2023-04-23T04:09:26;3.33;;;2.50;;
809;SDS011;387;48.772;9.186;2023-04-23T04:11:52;4.00;;;1.83;;
809;SDS011;387;48.772;9.186;2023-04-23T04:14:18;6.70;;;1.83;;
809;SDS011;387;48.772;9.186;2023-04-23T04:16:44;3.83;;;2.37;;
809;SDS011;387;48.772;9.186;2023-04-23T04:19:10;2.50;;;2.00;;
809;SDS011;387;48.772;9.186;2023-04-23T04:21:36;4.10;;;2.27;;
809;SDS011;387;48.772;9.186;2023-04-23T04:24:01;4.50;;;2.43;;
809;SDS011;387;48.772;9.186;2023-04-23T04:26:28;3.60;;;2.60;;
809;SDS011;387;48.772;9.186;2023-04-23T04:28:56;4.23;;;2.20;;
809;SDS011;387;48.772;9.186;2023-04-23T04:31:23;4.10;;;2.40;;
809;SDS011;387;48.772;9.186;2023-04-23T04:33:49;4.40;;;2.43;;
809;SDS011;387;48.772;9.186;2023-04-23T04:36:15;3.80;;;2.70;;
809;SDS011;387;48.772;9.186;2023-04-23T04:38:40;4.80;;;2.87;;
809;SDS011;387;48.772;9.186;2023-04-23T04:41:07;3.40;;;2.30;;
809;SDS011;387;48.772;9.186;2023-04-23T04:43:33;3.50;;;1.93;;
809;SDS011;387;48.772;9.186;2023-04-23T04:45:59;5.27;;;2.97;;
809;SDS011;387;48.772;9.186;2023-04-23T04:48:25;4.37;;;2.63;;
809;SDS011;387;48.772;9.186;2023-04-23T04:50:51;4.87;;;2.57;;
809;SDS011;387;48.772;9.186;2023-04-23T04:53:17;6.53;;;2.83;;
809;SDS011;387;48.772;9.186;2023-04-23T04:55:42;4.40;;;2.87;;
809;SDS011;387;48.772;9.186;2023-04-23T04:58:08;4.30;;;3.03;;
809;SDS011;387;48.772;9.186;2023-04-23T05:00:34;3.63;;;2.50;;
809;SDS011;387;48.772;9.186;2023-04-23T05:02:59;6.00;;;2.90;;
809;SDS011;387;48.772;9.186;2023-04-23T05:05:25;5.80;;;2.60;;
809;SDS011;387;48.772;9.186;2023-04-23T05:07:52;2.70;;;2.10;;
809;SDS011;387;48.772;9.186;2023-04-23T05:10:26;3.77;;;2.60;;
809;SDS011;387;48.772;9.186;2023-04-23T05:12:53;3.70;;;2.53;;
809;SDS011;387;48.772;9.186;2023-04-23T05:15:20;3.50;;;2.30;;
809;SDS011;387;48.772;9.186;2023-04-23T05:17:45;3.77;;;2.67;;
809;SDS011;387;48.772;9.186;2023-04-23T05:20:11;3.20;;;2.37;;
809;SDS011;387;48.772;9.186;2023-04-23T05:22:37;5.03;;;2.67;;
809;SDS011;387;48.772;9.186;2023-04-23T05:25:04;4.97;;;2.83;;
809;SDS011;387;48.772;9.186;2023-04-23T05:27:30;12.43;;;2.70;;
809;SDS011;387;48.772;9.186;2023-04-23T05:29:55;3.67;;;2.40;;
809;SDS011;387;48.772;9.186;2023-04-23T05:32:21;3.47;;;2.30;;
809;SDS011;387;48.772;9.186;2023-04-23T05:34:47;4.27;;;2.23;;
809;SDS011;387;48.772;9.186;2023-04-23T05:37:12;3.73;;;1.90;;
809;SDS011;387;48.772;9.186;2023-04-23T05:39:38;3.00;;;2.03;;
809;SDS011;387;48.772;9.186;2023-04-23T05:42:03;4.37;;;2.47;;
809;SDS011;387;48.772;9.186;2023-04-23T05:44:29;3.47;;;2.53;;
809;SDS011;387;48.772;9.186;2023-04-23T05:46:55;6.17;;;2.10;;
809;SDS011;387;48.772;9.186;2023-04-23T05:49:21;2.17;;;1.90;;
809;SDS011;387;48.772;9.186;2023-04-23T05:51:47;2.43;;;1.80;;
809;SDS011;387;48.772;9.186;2023-04-23T05:54:12;2.40;;;1.60;;
809;SDS011;387;48.772;9.186;2023-04-23T05:56:38;2.40;;;2.30;;
809;SDS011;387;48.772;9.186;2023-04-23T05:59:03;4.20;;;1.67;;
809;SDS011;387;48.772;9.186;2023-04-23T06:01:30;1.93;;;1.43;;
809;SDS011;387;48.772;9.186;2023-04-23T06:03:55;2.50;;;1.63;;
809;SDS011;387;48.772;9.186;2023-04-23T06:06:21;3.30;;;2.27;;
809;SDS011;387;48.772;9.186;2023-04-23T06:08:47;1.93;;;1.40;;
809;SDS011;387;48.772;9.186;2023-04-23T06:11:15;2.57;;;1.53;;
809;SDS011;387;48.772;9.186;2023-04-23T06:13:40;11.13;;;6.63;;
809;SDS011;387;48.772;9.186;2023-04-23T06:16:07;2.70;;;1.40;;
809;SDS011;387;48.772;9.186;2023-04-23T06:18:33;2.50;;;1.80;;
809;SDS011;387;48.772;9.186;2023-04-23T06:20:59;2.80;;;1.90;;
809;SDS011;387;48.772;9.186;2023-04-23T06:23:28;6.30;;;3.70;;
809;SDS011;387;48.772;9.186;2023-04-23T06:25:58;1.80;;;1.57;;
809;SDS011;387;48.772;9.186;2023-04-23T06:28:24;3.17;;;1.97;;
809;SDS011;387;48.772;9.186;2023-04-23T06:30:50;1.63;;;1.23;;
809;SDS011;387;48.772;9.186;2023-04-23T06:33:16;1.57;;;1.40;;
809;SDS011;387;48.772;9.186;2023-04-23T06:35:42;2.27;;;1.67;;
809;SDS011;387;48.772;9.186;2023-04-23T06:38:08;5.80;;;1.37;;
809;SDS011;387;48.772;9.186;2023-04-23T06:40:34;2.23;;;1.30;;
809;SDS011;387;48.772;9.186;2023-04-23T06:42:59;1.70;;;1.50;;
809;SDS011;387;48.772;9.186;2023-04-23T06:45:28;3.50;;;1.67;;
809;SDS011;387;48.772;9.186;2023-04-23T06:47:56;13.90;;;4.93;;
809;SDS011;387;48.772;9.186;2023-04-23T06:50:21;2.00;;;1.60;;
809;SDS011;387;48.772;9.186;2023-04-23T06:52:47;2.00;;;1.50;;
809;SDS011;387;48.772;9.186;2023-04-23T06:55:13;1.77;;;1.30;;
809;SDS011;387;48.772;9.186;2023-04-23T06:57:38;1.60;;;1.10;;
809;SDS011;387;48.772;9.186;2023-04-23T07:00:05;2.30;;;1.37;;
809;SDS011;387;48.772;9.186;2023-04-23T07:02:37;1.33;;;1.00;;
809;SDS011;387;48.772;9.186;2023-04-23T07:05:03;2.00;;;1.27;;
809;SDS011;387;48.772;9.186;2023-04-23T07:07:29;2.20;;;1.50;;
809;SDS011;387;48.772;9.186;2023-04-23T07:09:55;2.20;;;1.40;;
809;SDS011;387;48.772;9.186;2023-04-23T07:12:20;2.13;;;1.20;;
809;SDS011;387;48.772;9.186;2023-04-23T07:14:46;3.50;;;1.73;;
809;SDS011;387;48.772;9.186;2023-04-23T07:17:11;3.40;;;1.60;;
809;SDS011;387;48.772;9.186;2023-04-23T07:19:37;2.10;;;1.47;;
809;SDS011;387;48.772;9.186;2023-04-23T07:22:03;2.70;;;1.57;;
809;SDS011;387;48.772;9.186;2023-04-23T07:24:28;2.80;;;1.47;;
809;SDS011;387;48.772;9.186;2023-04-23T07:26:54;2.83;;;1.40;;
809;SDS011;387;48.772;9.186;2023-04-23T07:29:19;2.40;;;1.50;;
809;SDS011;387;48.772;9.186;2023-04-23T07:31:45;2.00;;;1.60;;
809;SDS011;387;48.772;9.186;2023-04-23T07:34:12;2.40;;;1.20;;
809;SDS011;387;48.772;9.186;2023-04-23T07:36:37;3.63;;;1.20;;
809;SDS011;387;48.772;9.186;2023-04-23T07:39:04;3.30;;;1.87;;
809;SDS011;387;48.772;9.186;2023-04-23T07:41:30;2.80;;;1.67;;
809;SDS011;387;48.772;9.186;2023-04-23T07:43:56;2.10;;;1.67;;
809;SDS011;387;48.772;9.186;2023-04-23T07:46:22;3.07;;;1.97;;
809;SDS011;387;48.772;9.186;2023-04-23T07:48:48;2.30;;;1.80;;
809;SDS011;387;48.772;9.186;2023-04-23T07:51:14;2.40;;;1.70;;
809;SDS011;387;48.772;9.186;2023-04-23T07:53:40;4.00;;;1.70;;
809;SDS011;387;48.772;9.186;2023-04-23T07:56:05;2.33;;;1.60;;
809;SDS011;387;48.772;9.186;2023-04-23T07:58:31;2.53;;;1.80;;
809;SDS011;387;48.772;9.186;2023-04-23T08:00:57;2.93;;;1.80;;
809;SDS011;387;48.772;9.186;2023-04-23T08:03:23;2.33;;;1.80;;
809;SDS011;387;48.772;9.186;2023-04-23T08:05:48;8.73;;;4.10;;
809;SDS011;387;48.772;9.186;2023-04-23T08:08:14;4.90;;;2.80;;
809;SDS011;387;48.772;9.186;2023-04-23T08:10:40;4.23;;;2.50;;
809;SDS011;387;48.772;9.186;2023-04-23T08:13:05;5.03;;;2.00;;
809;SDS011;387;48.772;9.186;2023-04-23T08:15:31;2.47;;;1.87;;
809;SDS011;387;48.772;9.186;2023-04-23T08:17:57;4.23;;;1.90;;
809;SDS011;387;48.772;9.186;2023-04-23T08:20:23;3.33;;;2.20;;
809;SDS011;387;48.772;9.186;2023-04-23T08:22:49;2.87;;;1.80;;
809;SDS011;387;48.772;9.186;2023-04-23T08:25:17;2.30;;;1.77;;
809;SDS011;387;48.772;9.186;2023-04-23T08:27:44;3.50;;;1.90;;
809;SDS011;387;48.772;9.186;2023-04-23T08:30:10;3.80;;;2.40;;
809;SDS011;387;48.772;9.186;2023-04-23T08:32:37;2.83;;;1.87;;
809;SDS011;387;48.772;9.186;2023-04-23T08:35:04;2.67;;;1.80;;
809;SDS011;387;48.772;9.186;2023-04-23T08:37:29;3.00;;;2.07;;
809;SDS011;387;48.772;9.186;2023-04-23T08:39:55;7.20;;;1.90;;
809;SDS011;387;48.772;9.186;2023-04-23T08:45:01;2.53;;;1.77;;
809;SDS011;387;48.772;9.186;2023-04-23T08:47:28;2.10;;;1.80;;
809;SDS011;387;48.772;9.186;2023-04-23T08:49:54;4.27;;;1.93;;
809;SDS011;387;48.772;9.186;2023-04-23T08:52:24;5.43;;;2.00;;
809;SDS011;387;48.772;9.186;2023-04-23T08:54:53;3.70;;;2.03;;
809;SDS011;387;48.772;9.186;2023-04-23T08:57:25;2.63;;;1.70;;
809;SDS011;387;48.772;9.186;2023-04-23T08:59:50;2.97;;;1.73;;
809;SDS011;387;48.772;9.186;2023-04-23T09:02:16;3.87;;;2.00;;
809;SDS011;387;48.772;9.186;2023-04-23T09:04:43;2.77;;;1.90;;
809;SDS011;387;48.772;9.186;2023-04-23T09:07:09;2.37;;;1.80;;
809;SDS011;387;48.772;9.186;2023-04-23T09:09:37;3.63;;;1.80;;
809;SDS011;387;48.772;9.186;2023-04-23T09:12:03;2.47;;;1.83;;
809;SDS011;387;48.772;9.186;2023-04-23T09:14:31;5.50;;;1.93;;
809;SDS011;387;48.772;9.186;2023-04-23T09:16:57;2.30;;;1.80;;
809;SDS011;387;48.772;9.186;2023-04-23T09:19:24;4.90;;;1.80;;
809;SDS011;387;48.772;9.186;2023-04-23T09:21:57;2.33;;;1.60;;
809;SDS011;387;48.772;9.186;2023-04-23T09:24:25;2.73;;;1.57;;
809;SDS011;387;48.772;9.186;2023-04-23T09:26:52;2.00;;;1.30;;
809;SDS011;387;48.772;9.186;2023-04-23T09:29:19;4.23;;;1.60;;
809;SDS011;387;48.772;9.186;2023-04-23T09:31:52;2.10;;;1.53;;
809;SDS011;387;48.772;9.186;2023-04-23T09:34:20;2.07;;;1.40;;
809;SDS011;387;48.772;9.186;2023-04-23T09:36:47;2.53;;;1.70;;
809;SDS011;387;48.772;9.186;2023-04-23T09:39:15;2.77;;;1.60;;
809;SDS011;387;48.772;9.186;2023-04-23T09:41:42;1.67;;;1.40;;
809;SDS011;387;48.772;9.186;2023-04-23T09:44:10;2.33;;;1.40;;
809;SDS011;387;48.772;9.186;2023-04-23T09:46:38;2.40;;;1.40;;
809;SDS011;387;48.772;9.186;2023-04-23T09:49:06;4.40;;;1.50;;
809;SDS011;387;48.772;9.186;2023-04-23T09:51:36;1.97;;;1.70;;
809;SDS011;387;48.772;9.186;2023-04-23T09:54:02;6.00;;;1.90;;
809;SDS011;387;48.772;9.186;2023-04-23T09:56:29;2.30;;;1.37;;
809;SDS011;387;48.772;9.186;2023-04-23T09:58:56;2.23;;;1.40;;
809;SDS011;387;48.772;9.186;2023-04-23T10:01:28;2.40;;;1.50;;
809;SDS011;387;48.772;9.186;2023-04-23T10:03:54;2.63;;;1.53;;
809;SDS011;387;48.772;9.186;2023-04-23T10:06:26;2.27;;;1.60;;
809;SDS011;387;48.772;9.186;2023-04-23T10:08:56;3.37;;;1.63;;
809;SDS011;387;48.772;9.186;2023-04-23T10:11:23;2.10;;;1.47;;
809;SDS011;387;48.772;9.186;2023-04-23T10:13:49;3.57;;;1.80;;
809;SDS011;387;48.772;9.186;2023-04-23T10:16:17;1.57;;;1.33;;
809;SDS011;387;48.772;9.186;2023-04-23T10:18:45;4.00;;;1.70;;
809;SDS011;387;48.772;9.186;2023-04-23T10:21:11;3.20;;;1.63;;
809;SDS011;387;48.772;9.186;2023-04-23T10:23:39;2.20;;;1.40;;
809;SDS011;387;48.772;9.186;2023-04-23T10:26:08;2.07;;;1.43;;
809;SDS011;387;48.772;9.186;2023-04-23T10:28:35;3.40;;;1.40;;
809;SDS011;387;48.772;9.186;2023-04-23T10:31:03;2.40;;;1.57;;
809;SDS011;387;48.772;9.186;2023-04-23T10:33:30;1.50;;;1.50;;
809;SDS011;387;48.772;9.186;2023-04-23T10:35:57;2.17;;;1.43;;
809;SDS011;387;48.772;9.186;2023-04-23T10:38:23;2.00;;;1.50;;
809;SDS011;387;48.772;9.186;2023-04-23T10:40:52;2.30;;;1.63;;
809;SDS011;387;48.772;9.186;2023-04-23T10:43:19;3.57;;;1.17;;
809;SDS011;387;48.772;9.186;2023-04-23T10:45:45;2.20;;;1.40;;
809;SDS011;387;48.772;9.186;2023-04-23T10:48:11;4.40;;;1.47;;
809;SDS011;387;48.772;9.186;2023-04-23T10:50:36;1.90;;;1.50;;
809;SDS011;387;48.772;9.186;2023-04-23T10:53:02;2.67;;;1.80;;
809;SDS011;387;48.772;9.186;2023-04-23T10:55:29;2.13;;;1.50;;
809;SDS011;387;48.772;9.186;2023-04-23T11:00:25;3.83;;;1.30;;
809;SDS011;387;48.772;9.186;2023-04-23T11:02:51;1.87;;;1.30;;
809;SDS011;387;48.772;9.186;2023-04-23T11:05:17;2.43;;;1.30;;
809;SDS011;387;48.772;9.186;2023-04-23T11:08:00;2.67;;;1.53;;
809;SDS011;387;48.772;9.186;2023-04-23T11:10:30;4.40;;;1.60;;
809;SDS011;387;48.772;9.186;2023-04-23T11:12:57;2.00;;;1.50;;
809;SDS011;387;48.772;9.186;2023-04-23T11:15:42;2.13;;;1.37;;
809;SDS011;387;48.772;9.186;2023-04-23T11:18:08;1.97;;;1.47;;
809;SDS011;387;48.772;9.186;2023-04-23T11:20:35;2.17;;;1.47;;
809;SDS011;387;48.772;9.186;2023-04-23T11:23:01;2.53;;;1.50;;
809;SDS011;387;48.772;9.186;2023-04-23T11:25:31;1.60;;;1.30;;
809;SDS011;387;48.772;9.186;2023-04-23T11:27:57;2.57;;;1.50;;
809;SDS011;387;48.772;9.186;2023-04-23T11:30:23;2.20;;;1.50;;
809;SDS011;387;48.772;9.186;2023-04-23T11:32:51;2.30;;;1.77;;
809;SDS011;387;48.772;9.186;2023-04-23T11:35:18;2.70;;;1.60;;
809;SDS011;387;48.772;9.186;2023-04-23T11:37:46;1.80;;;1.30;;
809;SDS011;387;48.772;9.186;2023-04-23T11:40:13;2.60;;;1.57;;
809;SDS011;387;48.772;9.186;2023-04-23T11:42:43;2.37;;;1.60;;
809;SDS011;387;48.772;9.186;2023-04-23T11:47:45;1.83;;;1.30;;
809;SDS011;387;48.772;9.186;2023-04-23T11:50:19;1.80;;;1.17;;
809;SDS011;387;48.772;9.186;2023-04-23T11:52:53;1.30;;;1.20;;
809;SDS011;387;48.772;9.186;2023-04-23T11:55:19;2.43;;;1.77;;
809;SDS011;387;48.772;9.186;2023-04-23T11:57:46;3.93;;;1.30;;
809;SDS011;387;48.772;9.186;2023-04-23T12:00:16;2.97;;;1.40;;
809;SDS011;387;48.772;9.186;2023-04-23T12:02:55;1.60;;;1.37;;
809;SDS011;387;48.772;9.186;2023-04-23T12:05:32;3.73;;;1.40;;
809;SDS011;387;48.772;9.186;2023-04-23T12:08:19;2.10;;;1.30;;
809;SDS011;387;48.772;9.186;2023-04-23T12:10:46;2.33;;;1.40;;
809;SDS011;387;48.772;9.186;2023-04-23T12:13:26;1.20;;;1.00;;
809;SDS011;387;48.772;9.186;2023-04-23T12:15:58;1.57;;;1.17;;
809;SDS011;387;48.772;9.186;2023-04-23T12:18:38;2.30;;;1.40;;
809;SDS011;387;48.772;9.186;2023-04-23T12:21:06;2.33;;;1.50;;
809;SDS011;387;48.772;9.186;2023-04-23T12:23:34;1.90;;;1.17;;
809;SDS011;387;48.772;9.186;2023-04-23T12:26:03;2.23;;;1.40;;
809;SDS011;387;48.772;9.186;2023-04-23T12:28:44;2.07;;;1.33;;
809;SDS011;387;48.772;9.186;2023-04-23T12:31:24;1.87;;;1.43;;
809;SDS011;387;48.772;9.186;2023-04-23T12:33:57;3.30;;;1.30;;
809;SDS011;387;48.772;9.186;2023-04-23T12:36:30;4.80;;;1.40;;
809;SDS011;387;48.772;9.186;2023-04-23T12:41:54;2.87;;;1.10;;
809;SDS011;387;48.772;9.186;2023-04-23T12:44:31;3.73;;;1.50;;
809;SDS011;387;48.772;9.186;2023-04-23T12:47:00;2.27;;;1.60;;
809;SDS011;387;48.772;9.186;2023-04-23T12:49:31;2.70;;;1.60;;
809;SDS011;387;48.772;9.186;2023-04-23T12:51:57;2.50;;;1.50;;
809;SDS011;387;48.772;9.186;2023-04-23T12:54:25;1.50;;;1.30;;
809;SDS011;387;48.772;9.186;2023-04-23T12:56:53;1.97;;;1.57;;
809;SDS011;387;48.772;9.186;2023-04-23T12:59:19;1.80;;;1.30;;
809;SDS011;387;48.772;9.186;2023-04-23T13:01:45;1.73;;;1.37;;
809;SDS011;387;48.772;9.186;2023-04-23T13:04:11;1.40;;;1.20;;
809;SDS011;387;48.772;9.186;2023-04-23T13:06:37;2.17;;;1.50;;
809;SDS011;387;48.772;9.186;2023-04-23T13:09:02;2.43;;;1.50;;
809;SDS011;387;48.772;9.186;2023-04-23T13:11:29;2.37;;;1.77;;
809;SDS011;387;48.772;9.186;2023-04-23T13:13:56;1.80;;;1.43;;
809;SDS011;387;48.772;9.186;2023-04-23T13:16:21;1.60;;;1.27;;
809;SDS011;387;48.772;9.186;2023-04-23T13:18:48;2.30;;;1.50;;
809;SDS011;387;48.772;9.186;2023-04-23T13:21:15;1.97;;;1.30;;
809;SDS011;387;48.772;9.186;2023-04-23T13:23:41;2.30;;;1.37;;
809;SDS011;387;48.772;9.186;2023-04-23T13:26:06;1.93;;;1.10;;
809;SDS011;387;48.772;9.186;2023-04-23T13:28:32;2.50;;;1.20;;
809;SDS011;387;48.772;9.186;2023-04-23T13:30:59;2.37;;;1.20;;
809;SDS011;387;48.772;9.186;2023-04-23T13:33:25;2.30;;;1.47;;
809;SDS011;387;48.772;9.186;2023-04-23T13:35:50;2.23;;;1.60;;
809;SDS011;387;48.772;9.186;2023-04-23T13:38:16;1.70;;;1.43;;
809;SDS011;387;48.772;9.186;2023-04-23T13:40:42;2.87;;;1.50;;
809;SDS011;387;48.772;9.186;2023-04-23T13:43:07;2.20;;;1.60;;
809;SDS011;387;48.772;9.186;2023-04-23T13:45:33;4.47;;;1.40;;
809;SDS011;387;48.772;9.186;2023-04-23T13:47:59;1.80;;;1.50;;
809;SDS011;387;48.772;9.186;2023-04-23T13:50:26;3.10;;;1.33;;
809;SDS011;387;48.772;9.186;2023-04-23T13:52:52;4.20;;;1.70;;
809;SDS011;387;48.772;9.186;2023-04-23T13:55:17;2.47;;;1.13;;
809;SDS011;387;48.772;9.186;2023-04-23T13:57:43;1.30;;;0.90;;
809;SDS011;387;48.772;9.186;2023-04-23T14:00:09;1.60;;;1.20;;
809;SDS011;387;48.772;9.186;2023-04-23T14:02:36;1.60;;;1.10;;
809;SDS011;387;48.772;9.186;2023-04-23T14:05:02;2.63;;;1.37;;
809;SDS011;387;48.772;9.186;2023-04-23T14:07:30;2.40;;;1.50;;
809;SDS011;387;48.772;9.186;2023-04-23T14:09:56;2.47;;;1.40;;
809;SDS011;387;48.772;9.186;2023-04-23T14:12:22;4.03;;;1.73;;
809;SDS011;387;48.772;9.186;2023-04-23T14:14:48;3.37;;;1.83;;
809;SDS011;387;48.772;9.186;2023-04-23T14:17:14;2.30;;;1.43;;
809;SDS011;387;48.772;9.186;2023-04-23T14:19:40;2.87;;;1.23;;
809;SDS011;387;48.772;9.186;2023-04-23T14:22:05;1.97;;;1.30;;
809;SDS011;387;48.772;9.186;2023-04-23T14:26:58;3.83;;;1.50;;
809;SDS011;387;48.772;9.186;2023-04-23T14:31:58;3.30;;;1.40;;
809;SDS011;387;48.772;9.186;2023-04-23T14:34:23;3.13;;;1.33;;
809;SDS011;387;48.772;9.186;2023-04-23T14:36:49;2.80;;;1.53;;
809;SDS011;387;48.772;9.186;2023-04-23T14:39:16;2.23;;;1.40;;
809;SDS011;387;48.772;9.186;2023-04-23T14:41:42;1.80;;;1.70;;
809;SDS011;387;48.772;9.186;2023-04-23T14:44:08;2.00;;;1.50;;
809;SDS011;387;48.772;9.186;2023-04-23T14:46:34;1.90;;;1.40;;
809;SDS011;387;48.772;9.186;2023-04-23T14:48:59;1.57;;;1.30;;
809;SDS011;387;48.772;9.186;2023-04-23T14:51:25;3.60;;;1.53;;
809;SDS011;387;48.772;9.186;2023-04-23T14:53:51;4.90;;;2.50;;
809;SDS011;387;48.772;9.186;2023-04-23T14:56:17;3.93;;;1.57;;
809;SDS011;387;48.772;9.186;2023-04-23T14:58:42;3.77;;;2.27;;
809;SDS011;387;48.772;9.186;2023-04-23T15:01:08;3.50;;;1.70;;
809;SDS011;387;48.772;9.186;2023-04-23T15:03:34;6.43;;;1.53;;
809;SDS011;387;48.772;9.186;2023-04-23T15:06:00;3.40;;;1.53;;
809;SDS011;387;48.772;9.186;2023-04-23T15:08:27;3.17;;;1.63;;
809;SDS011;387;48.772;9.186;2023-04-23T15:10:52;4.87;;;1.90;;
809;SDS011;387;48.772;9.186;2023-04-23T15:16:00;2.90;;;1.83;;
809;SDS011;387;48.772;9.186;2023-04-23T15:18:27;1.67;;;1.50;;
809;SDS011;387;48.772;9.186;2023-04-23T15:20:53;3.37;;;1.73;;
809;SDS011;387;48.772;9.186;2023-04-23T15:23:19;1.90;;;1.30;;
809;SDS011;387;48.772;9.186;2023-04-23T15:25:47;4.20;;;1.57;;
809;SDS011;387;48.772;9.186;2023-04-23T15:28:13;3.93;;;1.70;;
809;SDS011;387;48.772;9.186;2023-04-23T15:30:39;2.90;;;2.30;;
809;SDS011;387;48.772;9.186;2023-04-23T15:33:07;1.80;;;1.50;;
809;SDS011;387;48.772;9.186;2023-04-23T15:35:32;2.60;;;1.70;;
809;SDS011;387;48.772;9.186;2023-04-23T15:37:58;2.50;;;1.67;;
809;SDS011;387;48.772;9.186;2023-04-23T15:40:25;2.90;;;1.60;;
809;SDS011;387;48.772;9.186;2023-04-23T15:42:53;2.83;;;1.77;;
809;SDS011;387;48.772;9.186;2023-04-23T15:45:19;3.37;;;2.27;;
809;SDS011;387;48.772;9.186;2023-04-23T15:47:44;2.73;;;1.63;;
809;SDS011;387;48.772;9.186;2023-04-23T15:50:10;4.50;;;1.50;;
809;SDS011;387;48.772;9.186;2023-04-23T15:52:37;4.80;;;1.67;;
809;SDS011;387;48.772;9.186;2023-04-23T15:55:04;4.17;;;1.47;;
809;SDS011;387;48.772;9.186;2023-04-23T15:57:30;3.23;;;2.03;;
809;SDS011;387;48.772;9.186;2023-04-23T15:59:55;2.07;;;1.60;;